• Join FlightAware (Why Join?)
  • Login
  • US Flag 
02:14AM EDT


 

Airport Tracker/Info


-or-


 

Live Flight TrackerFlight Track Log ✈ SWA3027 ✈ 09-Aug-2013 ✈ KBWI - KALB

Flight Track Log - Related Links

Times and Time Zones

All times are in EDT time to prevent confusion due to time zone crossing. See the SWA3027 flight status page for this flight to view local times or setup timezone preferences in your user account.

Time Position Orientation Groundspeed Altitude Reporting Facility
EDT Latitude Longitude Course Direction KTS MPH feet Rate Location/Type
07:22AM 39.1500 -76.6500 270° West 159 183 1,600  Level Potomac TRACON
07:24AM 39.1353 -76.4747 96° East 223 257 6,300 2,520 Climbing Washington Center
07:25AM 39.1403 -76.3597 87° East 263 303 9,600 3,060 Climbing Washington Center
07:26AM 39.1492 -76.2392 85° East 309 356 12,600 3,000 Climbing Washington Center
07:27AM 39.1664 -76.1189 79° East 342 394 15,600 3,180 Climbing Washington Center
07:28AM 39.1500 -76.4982 270° West  Level FlightAware Approximate
07:28AM 39.1817 -75.9797 82° East 377 434 19,000  Level Washington Center
07:29AM 39.2153 -75.8433 72° East 389 448 21,500 2,520 Climbing Washington Center
07:30AM 39.3008 -75.7417 43° Northeast 389 448 24,000 2,700 Climbing Washington Center
07:31AM 39.3844 -75.6319 45° Northeast 408 470 26,900 2,460 Climbing Washington Center
07:32AM 39.4656 -75.5297 44° Northeast 408 470 29,000 660 Climbing Washington Center
07:34AM 39.5487 -75.4161 46° Northeast  Level FlightAware Approximate
07:34AM 39.6342 -75.3086 46° Northeast 415 478 29,000  Level Washington Center
07:35AM 39.6783 -75.2483 46° Northeast 411 473 29,000  Level New York Center
07:36AM 39.7556 -75.1319 49° Northeast 411 473 29,000  Level New York Center
07:37AM 39.8369 -75.0206 46° Northeast 422 486 29,000  Level New York Center
07:38AM 39.9181 -74.9039 48° Northeast 427 491 29,000  Level New York Center
07:39AM 40.0036 -74.7842 47° Northeast 422 486 29,000  Level New York Center
07:40AM 40.0758 -74.6800 48° Northeast 422 486 29,000  Level New York Center
07:41AM 40.1633 -74.5544 48° Northeast 427 491 29,000  Level New York Center
07:42AM 40.2522 -74.4450 43° Northeast 427 491 29,000  Level New York Center
07:43AM 40.3428 -74.3492 39° Northeast 427 491 29,000  Level New York Center
07:44AM 40.4333 -74.2503 40° Northeast 422 486 29,000  Level New York Center
07:45AM 40.5217 -74.1508 41° Northeast 417 480 29,000 -1,200 Level New York Center
07:47AM 40.7147 -73.9514 38° Northeast 406 467 25,400 -1,620 Descending Boston Center
07:48AM 40.7994 -73.8547 41° Northeast 396 456 24,000 -720 Descending Boston Center
07:49AM 40.8861 -73.7497 42° Northeast 401 461 24,000  Level Boston Center
07:50AM 40.9728 -73.6386 44° Northeast 413 475 24,000 -300 Level Boston Center
07:51AM 41.0592 -73.5383 41° Northeast 419 482 23,500 -780 Descending Boston Center
07:52AM 41.1578 -73.4822 23° Northeast 402 463 22,500 -1,020 Descending Boston Center
07:53AM 41.2869 -73.4869 358° North 372 428 21,300 -1,020 Descending Boston Center
07:54AM 41.3950 -73.4944 357° North 372 428 20,300 -900 Descending Boston Center
07:55AM 41.4786 -73.4958 359° North 372 428 19,500 -960 Descending Boston Center
07:56AM 41.5992 -73.5033 357° North 366 421 18,400 -1,200 Descending Boston Center
07:57AM 41.6867 -73.5047 359° North 360 414 17,200 -1,620 Descending Boston Center
07:58AM 41.7950 -73.5122 357° North 355 409 15,200 -1,920 Descending Boston Center
07:59AM 41.8825 -73.5164 358° North 350 403 13,500 -1,800 Descending Boston Center
08:00AM 41.9617 -73.5233 356° North 341 392 12,100 -1,440 Descending Boston Center
08:01AM 42.0514 -73.5250 359° North 321 369 11,000 -600 Descending Boston Center
08:02AM 42.1472 -73.5350 356° North 316 364 11,000  Level Boston Center
08:03AM 42.2406 -73.5589 349° North 319 367 11,000 -600 Level Boston Center
08:04AM 42.3175 -73.5772 350° North 307 353 9,900 -1,500 Descending Boston Center
08:05AM 42.3986 -73.5928 352° North 297 342 8,300 -1,560 Descending Boston Center
08:06AM 42.4778 -73.6167 347° North 293 337 6,800 -1,500 Descending Boston Center
08:07AM 42.5567 -73.6322 352° North 290 334 5,300 -900 Descending Boston Center
08:08AM 42.6336 -73.6536 348° North 282 325 5,100 -540 Descending Boston Center
08:09AM 42.7272 -73.6611 357° North 280 322 4,200 -600 Descending Boston Center
08:10AM 42.7939 -73.6681 356° North 274 315 4,000 -120 Descending Boston Center
08:11AM 42.8586 -73.6722 357° North 221 254 4,000 -360 Level Boston Center
08:12AM 42.9169 -73.6761 357° North 225 259 3,400 -840 Descending Boston Center
08:13AM 42.9347 -73.7444 290° West 204 235 2,400 -720 Descending Boston Center
08:14AM 42.9194 -73.8039 251° West 177 204 2,000 -180 Descending Boston Center
08:15AM 42.8714 -73.8111 186° South 162 186 2,100 -180 Climbing Boston Center
08:16AM 42.8297 -73.8131 182° South 138 159 1,700 -540 Descending Boston Center
08:17AM 42.7964 -73.8097 176° South 107 123 1,100 -600 Descending Boston Center
08:18AM 42.7653 -73.8061 175° South 113 130 500 -600 Descending Boston Center